sensor_id;sensor_type;location;lat;lon;timestamp;P1;durP1;ratioP1;P2;durP2;ratioP2
27039;SDS011;14589;51.578;7.306;2023-06-22T00:01:10;6.97;;;4.07;;
27039;SDS011;14589;51.578;7.306;2023-06-22T00:03:40;3.90;;;2.13;;
27039;SDS011;14589;51.578;7.306;2023-06-22T00:06:11;4.55;;;2.35;;
27039;SDS011;14589;51.578;7.306;2023-06-22T00:08:41;3.45;;;2.00;;
27039;SDS011;14589;51.578;7.306;2023-06-22T00:11:12;4.70;;;0.80;;
27039;SDS011;14589;51.578;7.306;2023-06-22T00:13:42;2.92;;;1.77;;
27039;SDS011;14589;51.578;7.306;2023-06-22T00:16:13;4.93;;;2.10;;
27039;SDS011;14589;51.578;7.306;2023-06-22T00:18:44;2.78;;;1.33;;
27039;SDS011;14589;51.578;7.306;2023-06-22T00:21:19;5.40;;;1.65;;
27039;SDS011;14589;51.578;7.306;2023-06-22T00:23:56;2.35;;;0.90;;
27039;SDS011;14589;51.578;7.306;2023-06-22T00:26:30;3.30;;;1.67;;
27039;SDS011;14589;51.578;7.306;2023-06-22T00:29:00;3.30;;;0.90;;
27039;SDS011;14589;51.578;7.306;2023-06-22T00:31:31;5.15;;;2.45;;
27039;SDS011;14589;51.578;7.306;2023-06-22T00:34:01;3.95;;;1.33;;
27039;SDS011;14589;51.578;7.306;2023-06-22T00:36:35;3.10;;;1.55;;
27039;SDS011;14589;51.578;7.306;2023-06-22T00:39:07;4.50;;;2.08;;
27039;SDS011;14589;51.578;7.306;2023-06-22T00:41:38;3.90;;;1.95;;
27039;SDS011;14589;51.578;7.306;2023-06-22T00:44:08;2.88;;;1.10;;
27039;SDS011;14589;51.578;7.306;2023-06-22T00:46:39;3.33;;;1.13;;
27039;SDS011;14589;51.578;7.306;2023-06-22T00:49:09;3.65;;;1.90;;
27039;SDS011;14589;51.578;7.306;2023-06-22T00:51:40;2.72;;;1.20;;
27039;SDS011;14589;51.578;7.306;2023-06-22T00:54:17;2.65;;;1.10;;
27039;SDS011;14589;51.578;7.306;2023-06-22T00:56:54;3.92;;;1.83;;
27039;SDS011;14589;51.578;7.306;2023-06-22T01:01:57;3.90;;;1.83;;
27039;SDS011;14589;51.578;7.306;2023-06-22T01:04:34;3.53;;;1.30;;
27039;SDS011;14589;51.578;7.306;2023-06-22T01:07:19;4.82;;;2.20;;
27039;SDS011;14589;51.578;7.306;2023-06-22T01:10:40;3.63;;;2.08;;
27039;SDS011;14589;51.578;7.306;2023-06-22T01:12:59;5.50;;;2.50;;
27039;SDS011;14589;51.578;7.306;2023-06-22T01:15:39;2.75;;;1.63;;
27039;SDS011;14589;51.578;7.306;2023-06-22T01:18:17;4.05;;;2.13;;
27039;SDS011;14589;51.578;7.306;2023-06-22T01:20:49;3.67;;;1.80;;
27039;SDS011;14589;51.578;7.306;2023-06-22T01:23:25;3.58;;;1.92;;
27039;SDS011;14589;51.578;7.306;2023-06-22T01:26:12;4.32;;;1.83;;
27039;SDS011;14589;51.578;7.306;2023-06-22T01:28:53;3.28;;;1.33;;
27039;SDS011;14589;51.578;7.306;2023-06-22T01:31:26;4.85;;;2.40;;
27039;SDS011;14589;51.578;7.306;2023-06-22T01:34:00;3.15;;;1.13;;
27039;SDS011;14589;51.578;7.306;2023-06-22T01:36:33;4.35;;;2.55;;
27039;SDS011;14589;51.578;7.306;2023-06-22T01:39:04;3.97;;;2.60;;
27039;SDS011;14589;51.578;7.306;2023-06-22T01:41:37;3.25;;;1.40;;
27039;SDS011;14589;51.578;7.306;2023-06-22T01:44:08;3.60;;;1.70;;
27039;SDS011;14589;51.578;7.306;2023-06-22T01:46:39;5.70;;;1.73;;
27039;SDS011;14589;51.578;7.306;2023-06-22T01:49:11;5.30;;;1.95;;
27039;SDS011;14589;51.578;7.306;2023-06-22T01:51:42;3.65;;;2.08;;
27039;SDS011;14589;51.578;7.306;2023-06-22T01:54:13;5.18;;;2.60;;
27039;SDS011;14589;51.578;7.306;2023-06-22T01:56:43;3.05;;;2.42;;
27039;SDS011;14589;51.578;7.306;2023-06-22T01:59:16;3.65;;;1.58;;
27039;SDS011;14589;51.578;7.306;2023-06-22T02:01:57;6.15;;;2.22;;
27039;SDS011;14589;51.578;7.306;2023-06-22T02:05:15;3.00;;;1.10;;
27039;SDS011;14589;51.578;7.306;2023-06-22T02:08:23;4.20;;;2.03;;
27039;SDS011;14589;51.578;7.306;2023-06-22T02:10:36;4.57;;;2.25;;
27039;SDS011;14589;51.578;7.306;2023-06-22T02:13:08;4.60;;;2.08;;
27039;SDS011;14589;51.578;7.306;2023-06-22T02:15:40;4.50;;;1.95;;
27039;SDS011;14589;51.578;7.306;2023-06-22T02:18:11;7.47;;;2.33;;
27039;SDS011;14589;51.578;7.306;2023-06-22T02:20:43;4.90;;;2.85;;
27039;SDS011;14589;51.578;7.306;2023-06-22T02:23:13;3.80;;;2.20;;
27039;SDS011;14589;51.578;7.306;2023-06-22T02:25:43;4.13;;;2.72;;
27039;SDS011;14589;51.578;7.306;2023-06-22T02:28:14;3.95;;;2.33;;
27039;SDS011;14589;51.578;7.306;2023-06-22T02:30:44;5.05;;;2.15;;
27039;SDS011;14589;51.578;7.306;2023-06-22T02:33:15;3.42;;;1.98;;
27039;SDS011;14589;51.578;7.306;2023-06-22T02:35:45;6.03;;;3.15;;
27039;SDS011;14589;51.578;7.306;2023-06-22T02:38:19;5.25;;;2.20;;
27039;SDS011;14589;51.578;7.306;2023-06-22T02:40:50;5.93;;;3.20;;
27039;SDS011;14589;51.578;7.306;2023-06-22T02:43:21;5.32;;;2.83;;
27039;SDS011;14589;51.578;7.306;2023-06-22T02:45:51;5.03;;;2.65;;
27039;SDS011;14589;51.578;7.306;2023-06-22T02:48:22;4.97;;;3.13;;
27039;SDS011;14589;51.578;7.306;2023-06-22T02:50:52;8.20;;;4.57;;
27039;SDS011;14589;51.578;7.306;2023-06-22T02:53:23;7.60;;;5.60;;
27039;SDS011;14589;51.578;7.306;2023-06-22T02:55:53;7.60;;;5.32;;
27039;SDS011;14589;51.578;7.306;2023-06-22T02:58:24;6.80;;;4.07;;
27039;SDS011;14589;51.578;7.306;2023-06-22T03:00:55;9.43;;;3.63;;
27039;SDS011;14589;51.578;7.306;2023-06-22T03:03:25;9.23;;;4.00;;
27039;SDS011;14589;51.578;7.306;2023-06-22T03:05:56;10.30;;;6.72;;
27039;SDS011;14589;51.578;7.306;2023-06-22T03:08:28;8.57;;;6.57;;
27039;SDS011;14589;51.578;7.306;2023-06-22T03:13:30;13.03;;;4.90;;
27039;SDS011;14589;51.578;7.306;2023-06-22T03:16:00;8.05;;;5.82;;
27039;SDS011;14589;51.578;7.306;2023-06-22T03:18:31;11.95;;;6.53;;
27039;SDS011;14589;51.578;7.306;2023-06-22T03:21:04;8.98;;;5.35;;
27039;SDS011;14589;51.578;7.306;2023-06-22T03:23:35;9.73;;;6.55;;
27039;SDS011;14589;51.578;7.306;2023-06-22T03:26:06;11.85;;;7.43;;
27039;SDS011;14589;51.578;7.306;2023-06-22T03:28:37;8.98;;;5.47;;
27039;SDS011;14589;51.578;7.306;2023-06-22T03:31:08;10.57;;;8.43;;
27039;SDS011;14589;51.578;7.306;2023-06-22T03:33:40;12.68;;;7.38;;
27039;SDS011;14589;51.578;7.306;2023-06-22T03:36:10;12.70;;;8.15;;
27039;SDS011;14589;51.578;7.306;2023-06-22T03:38:41;6.75;;;4.75;;
27039;SDS011;14589;51.578;7.306;2023-06-22T03:41:12;7.65;;;4.97;;
27039;SDS011;14589;51.578;7.306;2023-06-22T03:43:43;6.47;;;4.20;;
27039;SDS011;14589;51.578;7.306;2023-06-22T03:46:14;13.15;;;7.63;;
27039;SDS011;14589;51.578;7.306;2023-06-22T03:48:44;9.93;;;5.95;;
27039;SDS011;14589;51.578;7.306;2023-06-22T03:51:15;10.10;;;6.82;;
27039;SDS011;14589;51.578;7.306;2023-06-22T03:53:45;13.88;;;9.23;;
27039;SDS011;14589;51.578;7.306;2023-06-22T03:56:16;11.02;;;7.93;;
27039;SDS011;14589;51.578;7.306;2023-06-22T03:58:50;12.63;;;8.15;;
27039;SDS011;14589;51.578;7.306;2023-06-22T04:01:20;9.82;;;6.88;;
27039;SDS011;14589;51.578;7.306;2023-06-22T04:03:51;10.57;;;8.77;;
27039;SDS011;14589;51.578;7.306;2023-06-22T04:06:21;13.20;;;10.45;;
27039;SDS011;14589;51.578;7.306;2023-06-22T04:08:52;16.73;;;9.10;;
27039;SDS011;14589;51.578;7.306;2023-06-22T04:11:23;10.38;;;7.45;;
27039;SDS011;14589;51.578;7.306;2023-06-22T04:13:53;16.92;;;8.98;;
27039;SDS011;14589;51.578;7.306;2023-06-22T04:16:23;14.43;;;10.05;;
27039;SDS011;14589;51.578;7.306;2023-06-22T04:18:54;14.52;;;9.63;;
27039;SDS011;14589;51.578;7.306;2023-06-22T04:21:24;12.10;;;8.23;;
27039;SDS011;14589;51.578;7.306;2023-06-22T04:23:54;14.93;;;9.52;;
27039;SDS011;14589;51.578;7.306;2023-06-22T04:26:25;13.57;;;8.70;;
27039;SDS011;14589;51.578;7.306;2023-06-22T04:28:55;11.82;;;7.85;;
27039;SDS011;14589;51.578;7.306;2023-06-22T04:31:26;13.07;;;9.18;;
27039;SDS011;14589;51.578;7.306;2023-06-22T04:34:02;11.95;;;7.47;;
27039;SDS011;14589;51.578;7.306;2023-06-22T04:36:37;11.88;;;8.30;;
27039;SDS011;14589;51.578;7.306;2023-06-22T04:39:10;13.90;;;10.27;;
27039;SDS011;14589;51.578;7.306;2023-06-22T04:41:41;13.88;;;9.80;;
27039;SDS011;14589;51.578;7.306;2023-06-22T04:44:15;13.75;;;9.43;;
27039;SDS011;14589;51.578;7.306;2023-06-22T04:46:54;13.45;;;8.38;;
27039;SDS011;14589;51.578;7.306;2023-06-22T04:49:34;12.82;;;7.68;;
27039;SDS011;14589;51.578;7.306;2023-06-22T04:52:08;14.18;;;9.05;;
27039;SDS011;14589;51.578;7.306;2023-06-22T04:54:40;9.85;;;7.03;;
27039;SDS011;14589;51.578;7.306;2023-06-22T04:57:17;12.35;;;7.60;;
27039;SDS011;14589;51.578;7.306;2023-06-22T04:59:47;10.88;;;8.02;;
27039;SDS011;14589;51.578;7.306;2023-06-22T05:02:18;12.05;;;7.85;;
27039;SDS011;14589;51.578;7.306;2023-06-22T05:04:48;12.23;;;8.10;;
27039;SDS011;14589;51.578;7.306;2023-06-22T05:07:21;12.13;;;8.93;;
27039;SDS011;14589;51.578;7.306;2023-06-22T05:09:55;14.32;;;9.02;;
27039;SDS011;14589;51.578;7.306;2023-06-22T05:12:27;9.98;;;6.20;;
27039;SDS011;14589;51.578;7.306;2023-06-22T05:14:58;9.77;;;6.40;;
27039;SDS011;14589;51.578;7.306;2023-06-22T05:17:29;13.63;;;8.65;;
27039;SDS011;14589;51.578;7.306;2023-06-22T05:19:59;12.15;;;7.53;;
27039;SDS011;14589;51.578;7.306;2023-06-22T05:22:30;10.95;;;6.15;;
27039;SDS011;14589;51.578;7.306;2023-06-22T05:25:00;12.82;;;5.95;;
27039;SDS011;14589;51.578;7.306;2023-06-22T05:27:31;14.13;;;8.48;;
27039;SDS011;14589;51.578;7.306;2023-06-22T05:30:01;9.88;;;6.78;;
27039;SDS011;14589;51.578;7.306;2023-06-22T05:32:32;16.17;;;7.35;;
27039;SDS011;14589;51.578;7.306;2023-06-22T05:35:03;13.30;;;7.65;;
27039;SDS011;14589;51.578;7.306;2023-06-22T05:37:34;11.98;;;7.55;;
27039;SDS011;14589;51.578;7.306;2023-06-22T05:40:05;11.95;;;7.03;;
27039;SDS011;14589;51.578;7.306;2023-06-22T05:42:37;8.48;;;5.85;;
27039;SDS011;14589;51.578;7.306;2023-06-22T05:45:07;12.95;;;8.68;;
27039;SDS011;14589;51.578;7.306;2023-06-22T05:47:38;13.20;;;9.38;;
27039;SDS011;14589;51.578;7.306;2023-06-22T05:50:09;14.43;;;8.73;;
27039;SDS011;14589;51.578;7.306;2023-06-22T05:52:39;12.02;;;7.07;;
27039;SDS011;14589;51.578;7.306;2023-06-22T05:55:09;15.07;;;9.18;;
27039;SDS011;14589;51.578;7.306;2023-06-22T05:57:40;12.73;;;9.18;;
27039;SDS011;14589;51.578;7.306;2023-06-22T06:00:10;11.30;;;6.63;;
27039;SDS011;14589;51.578;7.306;2023-06-22T06:05:13;15.25;;;8.60;;
27039;SDS011;14589;51.578;7.306;2023-06-22T06:07:44;11.27;;;7.53;;
27039;SDS011;14589;51.578;7.306;2023-06-22T06:10:16;16.85;;;9.13;;
27039;SDS011;14589;51.578;7.306;2023-06-22T06:12:46;12.27;;;7.85;;
27039;SDS011;14589;51.578;7.306;2023-06-22T06:15:16;13.05;;;8.63;;
27039;SDS011;14589;51.578;7.306;2023-06-22T06:17:47;13.32;;;8.35;;
27039;SDS011;14589;51.578;7.306;2023-06-22T06:20:20;9.65;;;6.32;;
27039;SDS011;14589;51.578;7.306;2023-06-22T06:22:52;17.42;;;7.55;;
27039;SDS011;14589;51.578;7.306;2023-06-22T06:25:23;14.50;;;8.70;;
27039;SDS011;14589;51.578;7.306;2023-06-22T06:27:53;11.32;;;6.45;;
27039;SDS011;14589;51.578;7.306;2023-06-22T06:30:24;10.45;;;7.68;;
27039;SDS011;14589;51.578;7.306;2023-06-22T06:32:55;13.35;;;7.55;;
27039;SDS011;14589;51.578;7.306;2023-06-22T06:35:25;12.27;;;8.20;;
27039;SDS011;14589;51.578;7.306;2023-06-22T06:37:56;9.50;;;7.55;;
27039;SDS011;14589;51.578;7.306;2023-06-22T06:40:26;13.60;;;7.60;;
27039;SDS011;14589;51.578;7.306;2023-06-22T06:42:57;6.53;;;5.30;;
27039;SDS011;14589;51.578;7.306;2023-06-22T06:45:27;9.60;;;6.40;;
27039;SDS011;14589;51.578;7.306;2023-06-22T06:47:59;11.75;;;7.57;;
27039;SDS011;14589;51.578;7.306;2023-06-22T06:50:29;13.65;;;7.85;;
27039;SDS011;14589;51.578;7.306;2023-06-22T06:52:59;7.70;;;5.25;;
27039;SDS011;14589;51.578;7.306;2023-06-22T06:55:30;8.00;;;5.47;;
27039;SDS011;14589;51.578;7.306;2023-06-22T06:58:02;10.60;;;7.47;;
27039;SDS011;14589;51.578;7.306;2023-06-22T07:00:37;10.52;;;6.95;;
27039;SDS011;14589;51.578;7.306;2023-06-22T07:03:08;13.65;;;6.90;;
27039;SDS011;14589;51.578;7.306;2023-06-22T07:05:38;7.60;;;4.57;;
27039;SDS011;14589;51.578;7.306;2023-06-22T07:08:08;10.60;;;7.90;;
27039;SDS011;14589;51.578;7.306;2023-06-22T07:10:39;8.85;;;5.68;;
27039;SDS011;14589;51.578;7.306;2023-06-22T07:13:09;9.70;;;5.63;;
27039;SDS011;14589;51.578;7.306;2023-06-22T07:15:39;10.70;;;6.50;;
27039;SDS011;14589;51.578;7.306;2023-06-22T07:18:10;11.45;;;7.28;;
27039;SDS011;14589;51.578;7.306;2023-06-22T07:20:40;11.80;;;7.40;;
27039;SDS011;14589;51.578;7.306;2023-06-22T07:23:11;12.93;;;8.00;;
27039;SDS011;14589;51.578;7.306;2023-06-22T07:25:41;9.60;;;5.53;;
27039;SDS011;14589;51.578;7.306;2023-06-22T07:28:12;17.55;;;8.13;;
27039;SDS011;14589;51.578;7.306;2023-06-22T07:30:42;13.23;;;7.70;;
27039;SDS011;14589;51.578;7.306;2023-06-22T07:33:13;13.00;;;8.50;;
27039;SDS011;14589;51.578;7.306;2023-06-22T07:35:43;15.48;;;10.48;;
27039;SDS011;14589;51.578;7.306;2023-06-22T07:38:14;14.65;;;10.13;;
27039;SDS011;14589;51.578;7.306;2023-06-22T07:40:45;21.70;;;9.50;;
27039;SDS011;14589;51.578;7.306;2023-06-22T07:43:16;10.85;;;6.40;;
27039;SDS011;14589;51.578;7.306;2023-06-22T07:45:49;13.13;;;8.30;;
27039;SDS011;14589;51.578;7.306;2023-06-22T07:48:23;14.32;;;9.00;;
27039;SDS011;14589;51.578;7.306;2023-06-22T07:50:53;15.88;;;9.95;;
27039;SDS011;14589;51.578;7.306;2023-06-22T07:53:24;14.43;;;9.18;;
27039;SDS011;14589;51.578;7.306;2023-06-22T07:55:54;14.05;;;8.77;;
27039;SDS011;14589;51.578;7.306;2023-06-22T07:58:24;10.95;;;8.23;;
27039;SDS011;14589;51.578;7.306;2023-06-22T08:00:55;12.13;;;7.95;;
27039;SDS011;14589;51.578;7.306;2023-06-22T08:03:25;12.20;;;8.27;;
27039;SDS011;14589;51.578;7.306;2023-06-22T08:05:56;12.57;;;7.95;;
27039;SDS011;14589;51.578;7.306;2023-06-22T08:08:26;13.60;;;8.77;;
27039;SDS011;14589;51.578;7.306;2023-06-22T08:10:56;11.05;;;7.68;;
27039;SDS011;14589;51.578;7.306;2023-06-22T08:13:27;12.10;;;8.15;;
27039;SDS011;14589;51.578;7.306;2023-06-22T08:15:57;13.15;;;9.82;;
27039;SDS011;14589;51.578;7.306;2023-06-22T08:18:27;14.98;;;10.43;;
27039;SDS011;14589;51.578;7.306;2023-06-22T08:20:58;14.20;;;9.27;;
27039;SDS011;14589;51.578;7.306;2023-06-22T08:23:28;16.58;;;11.10;;
27039;SDS011;14589;51.578;7.306;2023-06-22T08:25:59;15.10;;;9.85;;
27039;SDS011;14589;51.578;7.306;2023-06-22T08:28:29;14.80;;;11.18;;
27039;SDS011;14589;51.578;7.306;2023-06-22T08:30:59;11.77;;;7.00;;
27039;SDS011;14589;51.578;7.306;2023-06-22T08:33:31;12.38;;;9.45;;
27039;SDS011;14589;51.578;7.306;2023-06-22T08:36:02;13.95;;;8.57;;
27039;SDS011;14589;51.578;7.306;2023-06-22T08:38:33;16.50;;;10.35;;
27039;SDS011;14589;51.578;7.306;2023-06-22T08:41:03;13.88;;;9.23;;
27039;SDS011;14589;51.578;7.306;2023-06-22T08:43:33;16.65;;;9.13;;
27039;SDS011;14589;51.578;7.306;2023-06-22T08:46:04;15.38;;;10.77;;
27039;SDS011;14589;51.578;7.306;2023-06-22T08:48:34;13.88;;;9.65;;
27039;SDS011;14589;51.578;7.306;2023-06-22T08:51:04;15.30;;;10.32;;
27039;SDS011;14589;51.578;7.306;2023-06-22T08:53:35;12.80;;;8.30;;
27039;SDS011;14589;51.578;7.306;2023-06-22T08:56:06;16.55;;;8.88;;
27039;SDS011;14589;51.578;7.306;2023-06-22T08:58:37;12.20;;;9.63;;
27039;SDS011;14589;51.578;7.306;2023-06-22T09:01:07;15.15;;;9.25;;
27039;SDS011;14589;51.578;7.306;2023-06-22T09:03:37;12.70;;;8.73;;
27039;SDS011;14589;51.578;7.306;2023-06-22T09:06:08;14.52;;;9.20;;
27039;SDS011;14589;51.578;7.306;2023-06-22T09:08:42;14.43;;;9.57;;
27039;SDS011;14589;51.578;7.306;2023-06-22T09:11:12;11.40;;;7.68;;
27039;SDS011;14589;51.578;7.306;2023-06-22T09:13:46;13.35;;;9.18;;
27039;SDS011;14589;51.578;7.306;2023-06-22T09:16:17;12.13;;;8.85;;
27039;SDS011;14589;51.578;7.306;2023-06-22T09:18:47;10.68;;;7.55;;
27039;SDS011;14589;51.578;7.306;2023-06-22T09:21:18;11.77;;;8.30;;
27039;SDS011;14589;51.578;7.306;2023-06-22T09:23:49;12.10;;;9.13;;
27039;SDS011;14589;51.578;7.306;2023-06-22T09:26:21;13.00;;;8.15;;
27039;SDS011;14589;51.578;7.306;2023-06-22T09:28:54;14.98;;;10.32;;
27039;SDS011;14589;51.578;7.306;2023-06-22T09:31:24;14.88;;;9.40;;
27039;SDS011;14589;51.578;7.306;2023-06-22T09:33:57;13.02;;;9.32;;
27039;SDS011;14589;51.578;7.306;2023-06-22T09:36:28;12.25;;;9.35;;
27039;SDS011;14589;51.578;7.306;2023-06-22T09:38:58;14.45;;;10.27;;
27039;SDS011;14589;51.578;7.306;2023-06-22T09:41:31;10.27;;;7.32;;
27039;SDS011;14589;51.578;7.306;2023-06-22T09:44:02;12.73;;;8.80;;
27039;SDS011;14589;51.578;7.306;2023-06-22T09:46:35;16.20;;;9.82;;
27039;SDS011;14589;51.578;7.306;2023-06-22T09:49:06;12.43;;;9.15;;
27039;SDS011;14589;51.578;7.306;2023-06-22T09:51:36;12.65;;;8.65;;
27039;SDS011;14589;51.578;7.306;2023-06-22T09:54:07;13.52;;;8.48;;
27039;SDS011;14589;51.578;7.306;2023-06-22T09:56:37;14.98;;;9.68;;
27039;SDS011;14589;51.578;7.306;2023-06-22T09:59:08;12.68;;;7.70;;
27039;SDS011;14589;51.578;7.306;2023-06-22T10:01:38;12.80;;;9.05;;
27039;SDS011;14589;51.578;7.306;2023-06-22T10:04:09;12.00;;;7.15;;
27039;SDS011;14589;51.578;7.306;2023-06-22T10:06:39;11.98;;;8.43;;
27039;SDS011;14589;51.578;7.306;2023-06-22T10:09:10;12.60;;;8.98;;
27039;SDS011;14589;51.578;7.306;2023-06-22T10:11:41;9.77;;;7.22;;
27039;SDS011;14589;51.578;7.306;2023-06-22T10:14:11;11.10;;;7.43;;
27039;SDS011;14589;51.578;7.306;2023-06-22T10:16:41;10.25;;;6.43;;
27039;SDS011;14589;51.578;7.306;2023-06-22T10:19:12;12.00;;;7.50;;
27039;SDS011;14589;51.578;7.306;2023-06-22T10:21:42;12.68;;;8.60;;
27039;SDS011;14589;51.578;7.306;2023-06-22T10:24:13;12.45;;;7.82;;
27039;SDS011;14589;51.578;7.306;2023-06-22T10:26:43;11.27;;;7.32;;
27039;SDS011;14589;51.578;7.306;2023-06-22T10:29:14;9.65;;;6.50;;
27039;SDS011;14589;51.578;7.306;2023-06-22T10:31:44;9.75;;;7.60;;
27039;SDS011;14589;51.578;7.306;2023-06-22T10:34:14;9.00;;;5.75;;
27039;SDS011;14589;51.578;7.306;2023-06-22T10:36:45;10.68;;;7.38;;
27039;SDS011;14589;51.578;7.306;2023-06-22T10:39:18;11.07;;;9.07;;
27039;SDS011;14589;51.578;7.306;2023-06-22T10:41:49;14.32;;;7.05;;
27039;SDS011;14589;51.578;7.306;2023-06-22T10:44:19;10.40;;;8.00;;
27039;SDS011;14589;51.578;7.306;2023-06-22T10:46:50;13.35;;;8.98;;
27039;SDS011;14589;51.578;7.306;2023-06-22T10:49:21;11.80;;;9.05;;
27039;SDS011;14589;51.578;7.306;2023-06-22T10:51:51;13.00;;;9.40;;
27039;SDS011;14589;51.578;7.306;2023-06-22T10:54:21;14.77;;;8.70;;
27039;SDS011;14589;51.578;7.306;2023-06-22T10:56:52;16.70;;;10.90;;
27039;SDS011;14589;51.578;7.306;2023-06-22T10:59:22;13.38;;;9.23;;
27039;SDS011;14589;51.578;7.306;2023-06-22T11:01:54;13.98;;;8.95;;
27039;SDS011;14589;51.578;7.306;2023-06-22T11:04:25;13.73;;;10.85;;
27039;SDS011;14589;51.578;7.306;2023-06-22T11:06:55;11.98;;;9.55;;
27039;SDS011;14589;51.578;7.306;2023-06-22T11:09:26;13.95;;;11.55;;
27039;SDS011;14589;51.578;7.306;2023-06-22T11:11:57;12.85;;;9.40;;
27039;SDS011;14589;51.578;7.306;2023-06-22T11:14:29;14.05;;;9.75;;
27039;SDS011;14589;51.578;7.306;2023-06-22T11:16:59;15.38;;;10.90;;
27039;SDS011;14589;51.578;7.306;2023-06-22T11:19:30;14.70;;;10.77;;
27039;SDS011;14589;51.578;7.306;2023-06-22T11:22:00;14.00;;;9.07;;
27039;SDS011;14589;51.578;7.306;2023-06-22T11:24:30;13.90;;;11.38;;
27039;SDS011;14589;51.578;7.306;2023-06-22T11:27:01;15.02;;;9.27;;
27039;SDS011;14589;51.578;7.306;2023-06-22T11:29:31;18.30;;;10.77;;
27039;SDS011;14589;51.578;7.306;2023-06-22T11:32:01;14.40;;;9.93;;
27039;SDS011;14589;51.578;7.306;2023-06-22T11:34:32;17.30;;;10.73;;
27039;SDS011;14589;51.578;7.306;2023-06-22T11:37:02;17.20;;;13.85;;
27039;SDS011;14589;51.578;7.306;2023-06-22T11:39:33;13.00;;;9.43;;
27039;SDS011;14589;51.578;7.306;2023-06-22T11:42:03;19.95;;;11.73;;
27039;SDS011;14589;51.578;7.306;2023-06-22T11:44:34;16.45;;;12.75;;
27039;SDS011;14589;51.578;7.306;2023-06-22T11:47:04;15.32;;;11.52;;
27039;SDS011;14589;51.578;7.306;2023-06-22T11:49:35;13.10;;;10.02;;
27039;SDS011;14589;51.578;7.306;2023-06-22T11:52:05;15.02;;;8.70;;
27039;SDS011;14589;51.578;7.306;2023-06-22T11:54:36;14.02;;;8.93;;
27039;SDS011;14589;51.578;7.306;2023-06-22T11:57:07;17.63;;;11.95;;
27039;SDS011;14589;51.578;7.306;2023-06-22T11:59:38;14.38;;;8.75;;
27039;SDS011;14589;51.578;7.306;2023-06-22T12:02:08;12.88;;;9.48;;
27039;SDS011;14589;51.578;7.306;2023-06-22T12:04:39;16.15;;;9.50;;
27039;SDS011;14589;51.578;7.306;2023-06-22T12:07:09;17.63;;;11.95;;
27039;SDS011;14589;51.578;7.306;2023-06-22T12:09:40;16.75;;;10.50;;
27039;SDS011;14589;51.578;7.306;2023-06-22T12:12:11;18.33;;;10.70;;
27039;SDS011;14589;51.578;7.306;2023-06-22T12:14:41;14.02;;;9.10;;
27039;SDS011;14589;51.578;7.306;2023-06-22T12:17:11;15.18;;;10.80;;
27039;SDS011;14589;51.578;7.306;2023-06-22T12:19:42;19.45;;;14.23;;
27039;SDS011;14589;51.578;7.306;2023-06-22T12:22:12;17.42;;;12.57;;
27039;SDS011;14589;51.578;7.306;2023-06-22T12:24:42;21.48;;;12.60;;
27039;SDS011;14589;51.578;7.306;2023-06-22T12:27:13;21.52;;;13.77;;
27039;SDS011;14589;51.578;7.306;2023-06-22T12:29:46;20.98;;;14.32;;
27039;SDS011;14589;51.578;7.306;2023-06-22T12:32:17;18.88;;;13.05;;
27039;SDS011;14589;51.578;7.306;2023-06-22T12:34:48;22.27;;;16.05;;
27039;SDS011;14589;51.578;7.306;2023-06-22T12:37:18;22.33;;;14.90;;
27039;SDS011;14589;51.578;7.306;2023-06-22T12:39:49;22.15;;;15.38;;
27039;SDS011;14589;51.578;7.306;2023-06-22T12:42:19;18.92;;;12.73;;
27039;SDS011;14589;51.578;7.306;2023-06-22T12:44:51;26.23;;;16.02;;
27039;SDS011;14589;51.578;7.306;2023-06-22T12:47:21;22.35;;;15.15;;
27039;SDS011;14589;51.578;7.306;2023-06-22T12:49:51;22.05;;;15.05;;
27039;SDS011;14589;51.578;7.306;2023-06-22T12:52:22;20.15;;;14.73;;
27039;SDS011;14589;51.578;7.306;2023-06-22T12:54:53;20.83;;;14.20;;
27039;SDS011;14589;51.578;7.306;2023-06-22T12:57:24;23.48;;;16.98;;
27039;SDS011;14589;51.578;7.306;2023-06-22T12:59:55;26.33;;;16.25;;
27039;SDS011;14589;51.578;7.306;2023-06-22T13:02:26;23.05;;;17.90;;
27039;SDS011;14589;51.578;7.306;2023-06-22T13:04:56;19.95;;;14.02;;
27039;SDS011;14589;51.578;7.306;2023-06-22T13:07:27;22.15;;;13.85;;
27039;SDS011;14589;51.578;7.306;2023-06-22T13:09:57;17.90;;;13.38;;
27039;SDS011;14589;51.578;7.306;2023-06-22T13:12:28;18.05;;;12.55;;
27039;SDS011;14589;51.578;7.306;2023-06-22T13:14:58;16.75;;;10.40;;
27039;SDS011;14589;51.578;7.306;2023-06-22T13:17:28;17.20;;;12.55;;
27039;SDS011;14589;51.578;7.306;2023-06-22T13:19:59;17.17;;;11.18;;
27039;SDS011;14589;51.578;7.306;2023-06-22T13:25:01;15.45;;;9.80;;
27039;SDS011;14589;51.578;7.306;2023-06-22T13:27:32;14.18;;;10.43;;
27039;SDS011;14589;51.578;7.306;2023-06-22T13:30:03;15.25;;;10.40;;
27039;SDS011;14589;51.578;7.306;2023-06-22T13:32:34;14.43;;;9.73;;
27039;SDS011;14589;51.578;7.306;2023-06-22T13:35:04;14.38;;;9.50;;
27039;SDS011;14589;51.578;7.306;2023-06-22T13:37:35;13.23;;;8.43;;
27039;SDS011;14589;51.578;7.306;2023-06-22T13:40:06;12.88;;;8.65;;
27039;SDS011;14589;51.578;7.306;2023-06-22T13:42:38;10.48;;;7.45;;
27039;SDS011;14589;51.578;7.306;2023-06-22T13:45:08;11.82;;;7.50;;
27039;SDS011;14589;51.578;7.306;2023-06-22T13:47:39;13.00;;;9.25;;
27039;SDS011;14589;51.578;7.306;2023-06-22T13:50:10;11.13;;;7.70;;
27039;SDS011;14589;51.578;7.306;2023-06-22T13:52:42;11.60;;;8.43;;
27039;SDS011;14589;51.578;7.306;2023-06-22T13:55:13;12.73;;;8.52;;
27039;SDS011;14589;51.578;7.306;2023-06-22T13:57:44;11.88;;;7.75;;
27039;SDS011;14589;51.578;7.306;2023-06-22T14:00:15;14.07;;;8.10;;
27039;SDS011;14589;51.578;7.306;2023-06-22T14:02:46;14.75;;;7.53;;
27039;SDS011;14589;51.578;7.306;2023-06-22T14:05:17;12.57;;;8.63;;
27039;SDS011;14589;51.578;7.306;2023-06-22T14:07:47;12.35;;;8.75;;
27039;SDS011;14589;51.578;7.306;2023-06-22T14:10:18;11.95;;;8.10;;
27039;SDS011;14589;51.578;7.306;2023-06-22T14:12:49;10.48;;;7.05;;
27039;SDS011;14589;51.578;7.306;2023-06-22T14:15:20;12.95;;;7.18;;
27039;SDS011;14589;51.578;7.306;2023-06-22T14:17:51;11.05;;;7.35;;
27039;SDS011;14589;51.578;7.306;2023-06-22T14:20:22;10.38;;;6.90;;
27039;SDS011;14589;51.578;7.306;2023-06-22T14:22:52;12.55;;;7.50;;
27039;SDS011;14589;51.578;7.306;2023-06-22T14:25:23;9.52;;;6.90;;
27039;SDS011;14589;51.578;7.306;2023-06-22T14:27:53;12.50;;;7.72;;
27039;SDS011;14589;51.578;7.306;2023-06-22T14:30:24;10.60;;;6.72;;
27039;SDS011;14589;51.578;7.306;2023-06-22T14:32:54;10.73;;;7.18;;
27039;SDS011;14589;51.578;7.306;2023-06-22T14:35:25;12.77;;;7.80;;
27039;SDS011;14589;51.578;7.306;2023-06-22T14:37:55;11.20;;;6.97;;
27039;SDS011;14589;51.578;7.306;2023-06-22T14:40:25;12.65;;;7.57;;
27039;SDS011;14589;51.578;7.306;2023-06-22T14:42:56;8.98;;;6.03;;
27039;SDS011;14589;51.578;7.306;2023-06-22T14:45:26;11.55;;;6.60;;
27039;SDS011;14589;51.578;7.306;2023-06-22T14:47:57;12.48;;;7.43;;
27039;SDS011;14589;51.578;7.306;2023-06-22T14:50:27;10.05;;;7.22;;
27039;SDS011;14589;51.578;7.306;2023-06-22T14:53:01;10.57;;;8.38;;
27039;SDS011;14589;51.578;7.306;2023-06-22T14:55:31;13.52;;;7.22;;
27039;SDS011;14589;51.578;7.306;2023-06-22T14:58:02;11.05;;;7.03;;
27039;SDS011;14589;51.578;7.306;2023-06-22T15:00:32;9.95;;;6.82;;
27039;SDS011;14589;51.578;7.306;2023-06-22T15:03:03;11.95;;;8.48;;
27039;SDS011;14589;51.578;7.306;2023-06-22T15:05:36;13.07;;;9.57;;
27039;SDS011;14589;51.578;7.306;2023-06-22T15:08:07;11.63;;;9.07;;
27039;SDS011;14589;51.578;7.306;2023-06-22T15:10:37;12.10;;;8.25;;